Time;durP1;ratioP1;P1;durP2;ratioP2;P2;SDS_P1;SDS_P2;PMS_P1;PMS_P2;Temp;Humidity;BMP_temperature;BMP_pressure;BME280_temperature;BME280_humidity;BME280_pressure;Samples;Min_cycle;Max_cycle;Signal;HPM_P1;HPM_P2
2023/03/31 00:02:01;;;;;;;1.77;1.07;;;11.60;99.90;;;;;;5050374;28;20181;-72
2023/03/31 00:04:30;;;;;;;6.43;1.00;;;11.60;99.90;;;;;;5050478;28;20421;-72
2023/03/31 00:06:56;;;;;;;3.90;1.20;;;11.60;99.90;;;;;;5053823;28;20514;-72
2023/03/31 00:09:21;;;;;;;2.00;1.00;;;11.60;99.90;;;;;;5054735;28;20405;-72
2023/03/31 00:11:48;;;;;;;4.30;1.87;;;11.50;99.90;;;;;;5054724;28;20163;-72
2023/03/31 00:14:15;;;;;;;8.90;1.30;;;11.50;99.90;;;;;;5054476;28;20718;-72
2023/03/31 00:16:41;;;;;;;4.03;1.30;;;11.40;99.90;;;;;;5055231;28;20755;-73
2023/03/31 00:19:09;;;;;;;1.57;1.03;;;11.40;99.90;;;;;;5055495;28;20424;-74
2023/03/31 00:21:35;;;;;;;1.53;1.03;;;11.40;99.90;;;;;;5054528;28;20212;-72
2023/03/31 00:24:05;;;;;;;1.17;0.80;;;11.40;99.90;;;;;;5054459;28;20504;-72
2023/03/31 00:26:32;;;;;;;3.23;1.23;;;11.40;99.90;;;;;;5054305;28;20401;-72
2023/03/31 00:28:58;;;;;;;3.40;1.03;;;11.50;99.90;;;;;;5054035;28;20404;-72
2023/03/31 00:31:26;;;;;;;1.50;1.13;;;11.60;99.90;;;;;;5055130;28;20397;-72
2023/03/31 00:33:52;;;;;;;2.40;1.00;;;11.60;99.90;;;;;;5054320;28;20482;-72
2023/03/31 00:36:20;;;;;;;7.03;1.67;;;11.50;99.90;;;;;;5054434;28;20480;-72
2023/03/31 00:38:48;;;;;;;1.87;0.80;;;11.50;99.90;;;;;;5054274;28;20249;-74
2023/03/31 00:41:14;;;;;;;4.13;1.83;;;11.50;99.90;;;;;;5053756;28;20416;-72
2023/03/31 00:43:41;;;;;;;1.43;1.10;;;11.50;99.90;;;;;;5054128;28;20512;-72
2023/03/31 00:46:14;;;;;;;1.23;1.07;;;11.50;99.90;;;;;;5054127;28;20397;-72
2023/03/31 00:49:01;;;;;;;7.63;1.73;;;11.50;99.90;;;;;;5053680;28;20452;-71
2023/03/31 00:51:30;;;;;;;1.83;0.90;;;11.50;99.90;;;;;;5054027;28;20455;-71
2023/03/31 00:54:03;;;;;;;1.13;1.03;;;11.50;99.90;;;;;;5053963;28;20952;-72
2023/03/31 00:56:35;;;;;;;1.63;0.90;;;11.50;99.90;;;;;;5054145;28;20398;-72
2023/03/31 00:59:03;;;;;;;3.50;1.07;;;11.50;99.90;;;;;;5055343;28;20414;-73
2023/03/31 01:01:30;;;;;;;3.10;1.00;;;11.50;99.90;;;;;;5056579;28;20406;-73
2023/03/31 01:03:56;;;;;;;1.10;0.80;;;11.50;99.90;;;;;;5053919;28;20483;-71
2023/03/31 01:06:24;;;;;;;3.30;1.30;;;11.50;99.90;;;;;;5054160;28;20405;-71
2023/03/31 01:08:51;;;;;;;2.27;1.17;;;11.50;99.90;;;;;;5053572;28;20431;-74
2023/03/31 01:11:21;;;;;;;1.90;1.43;;;11.40;99.90;;;;;;5055055;28;20405;-72
2023/03/31 01:13:49;;;;;;;4.97;1.00;;;11.40;99.90;;;;;;5052780;28;20814;-74
2023/03/31 01:16:17;;;;;;;2.30;2.10;;;11.40;99.90;;;;;;5053008;28;20413;-72
2023/03/31 01:18:48;;;;;;;1.10;1.00;;;11.40;99.90;;;;;;5052496;28;20405;-74
2023/03/31 01:21:46;;;;;;;3.30;1.30;;;11.30;99.90;;;;;;5056605;28;20405;-72
2023/03/31 01:24:46;;;;;;;2.40;1.17;;;11.40;99.90;;;;;;5053302;28;20530;-72
2023/03/31 01:27:52;;;;;;;3.67;1.37;;;11.30;99.90;;;;;;5054249;28;20563;-73
2023/03/31 01:30:42;;;;;;;2.83;1.13;;;11.30;99.90;;;;;;5054837;28;20766;-71
2023/03/31 01:33:32;;;;;;;3.77;1.33;;;11.30;99.90;;;;;;5054293;28;20457;-72
2023/03/31 01:36:36;;;;;;;2.60;1.17;;;11.30;99.90;;;;;;5053516;28;20440;-71
2023/03/31 01:39:45;;;;;;;1.57;1.30;;;11.20;99.90;;;;;;5053093;28;20446;-71
2023/03/31 01:42:35;;;;;;;3.30;1.30;;;11.30;99.90;;;;;;5052353;28;20504;-74
2023/03/31 01:45:19;;;;;;;8.47;1.50;;;11.20;99.90;;;;;;5053938;28;20402;-72
2023/03/31 01:47:51;;;;;;;1.67;1.43;;;11.20;99.90;;;;;;5052647;28;20452;-72
2023/03/31 01:50:28;;;;;;;3.37;1.67;;;11.20;99.90;;;;;;5053103;28;20405;-72
2023/03/31 01:53:28;;;;;;;4.87;1.43;;;11.30;99.90;;;;;;5055298;28;20448;-72
2023/03/31 01:56:06;;;;;;;4.70;1.23;;;11.40;99.90;;;;;;5052697;28;20420;-72
2023/03/31 01:58:37;;;;;;;4.73;1.63;;;11.40;99.90;;;;;;5052415;28;20801;-72
2023/03/31 02:01:48;;;;;;;4.30;1.80;;;11.40;99.90;;;;;;5054284;28;20413;-74
2023/03/31 02:04:23;;;;;;;3.33;1.77;;;11.50;99.90;;;;;;5031728;28;20461;-72
2023/03/31 02:06:56;;;;;;;7.00;1.57;;;11.50;99.90;;;;;;5049210;28;20445;-71
2023/03/31 02:09:27;;;;;;;6.67;1.60;;;11.50;99.90;;;;;;5052549;28;20405;-72
2023/03/31 02:11:55;;;;;;;2.83;1.63;;;11.60;99.90;;;;;;5052723;28;20487;-73
2023/03/31 02:14:24;;;;;;;3.30;1.70;;;11.60;99.90;;;;;;5055322;28;20532;-73
2023/03/31 02:16:57;;;;;;;5.40;1.90;;;11.50;99.90;;;;;;5055018;28;20432;-69
2023/03/31 02:19:26;;;;;;;4.97;1.60;;;11.60;99.90;;;;;;5051921;28;20414;-72
2023/03/31 02:21:53;;;;;;;3.30;1.80;;;11.70;99.90;;;;;;5052407;28;20480;-72
2023/03/31 02:24:22;;;;;;;4.03;1.90;;;11.70;99.90;;;;;;5052135;28;20779;-71
2023/03/31 02:26:53;;;;;;;3.10;1.63;;;11.70;99.90;;;;;;5052096;28;20440;-71
2023/03/31 02:29:20;;;;;;;7.20;1.53;;;11.80;99.90;;;;;;5052069;28;20394;-72
2023/03/31 02:31:54;;;;;;;6.17;2.07;;;11.80;99.90;;;;;;5050955;28;20405;-71
2023/03/31 02:34:20;;;;;;;5.73;1.47;;;11.80;99.90;;;;;;5052030;28;20415;-72
2023/03/31 02:36:45;;;;;;;1.30;1.10;;;11.80;99.90;;;;;;5050854;28;20417;-71
2023/03/31 02:39:15;;;;;;;4.77;1.70;;;11.80;99.90;;;;;;5050500;28;20427;-72
2023/03/31 02:41:41;;;;;;;3.20;1.50;;;11.80;99.90;;;;;;5052037;28;20167;-72
2023/03/31 02:44:09;;;;;;;2.70;1.57;;;11.70;99.90;;;;;;5052022;28;20508;-72
2023/03/31 02:46:35;;;;;;;8.33;1.70;;;11.80;99.90;;;;;;5051806;28;20434;-71
2023/03/31 02:49:03;;;;;;;3.00;1.17;;;11.70;99.90;;;;;;5051773;28;20421;-71
2023/03/31 02:52:01;;;;;;;5.27;1.50;;;11.80;99.90;;;;;;5050518;28;20166;-71
2023/03/31 02:54:45;;;;;;;1.63;1.03;;;11.80;99.90;;;;;;5051867;28;20451;-72
2023/03/31 02:57:42;;;;;;;2.37;1.00;;;11.80;99.90;;;;;;5051641;28;20436;-72
2023/03/31 03:00:35;;;;;;;5.27;1.63;;;11.80;99.90;;;;;;5051861;28;20408;-71
2023/03/31 03:03:19;;;;;;;1.80;1.20;;;11.70;99.90;;;;;;5051804;28;20941;-71
2023/03/31 03:06:23;;;;;;;1.20;1.00;;;11.70;99.90;;;;;;5051787;28;20405;-71
2023/03/31 03:09:03;;;;;;;2.37;1.17;;;11.60;99.90;;;;;;5033131;28;20518;-71
2023/03/31 03:11:55;;;;;;;4.43;1.90;;;11.60;99.90;;;;;;5050476;28;20914;-71
2023/03/31 03:14:49;;;;;;;5.43;1.97;;;11.60;99.90;;;;;;5050337;28;20507;-72
2023/03/31 03:17:35;;;;;;;12.40;3.33;;;11.60;99.90;;;;;;5050145;28;20417;-71
2023/03/31 03:20:09;;;;;;;3.37;1.17;;;11.50;99.90;;;;;;5051668;28;20394;-71
2023/03/31 03:22:36;;;;;;;5.43;1.43;;;11.50;99.90;;;;;;5051604;28;20397;-71
2023/03/31 03:25:03;;;;;;;2.50;1.07;;;11.50;99.90;;;;;;5051596;28;20401;-72
2023/03/31 03:27:29;;;;;;;4.20;1.37;;;11.50;99.90;;;;;;5051214;28;20539;-71
2023/03/31 03:29:55;;;;;;;7.03;2.43;;;11.50;99.90;;;;;;5051572;28;20504;-71
2023/03/31 03:32:20;;;;;;;2.70;1.13;;;11.50;99.90;;;;;;5051460;28;20155;-72
2023/03/31 03:34:46;;;;;;;5.27;1.20;;;11.50;99.90;;;;;;5051485;28;20417;-71
2023/03/31 03:37:11;;;;;;;3.97;3.10;;;11.40;99.90;;;;;;5051053;28;20567;-71
2023/03/31 03:39:37;;;;;;;5.97;1.50;;;11.50;99.90;;;;;;5051445;28;20175;-71
2023/03/31 03:42:03;;;;;;;4.33;1.40;;;11.50;99.90;;;;;;5054856;28;20704;-73
2023/03/31 03:44:28;;;;;;;4.97;1.57;;;11.50;99.90;;;;;;5055142;28;20198;-71
2023/03/31 03:46:54;;;;;;;2.40;1.03;;;11.40;99.90;;;;;;5053650;28;20484;-72
2023/03/31 03:49:19;;;;;;;1.37;1.07;;;11.50;99.90;;;;;;5055185;28;20197;-72
2023/03/31 03:51:45;;;;;;;4.50;1.70;;;11.40;99.90;;;;;;5053837;28;20664;-72
2023/03/31 03:54:11;;;;;;;2.40;1.47;;;11.50;99.90;;;;;;5055039;28;20198;-73
2023/03/31 03:56:37;;;;;;;5.73;1.57;;;11.50;99.90;;;;;;5053657;28;20194;-71
2023/03/31 03:59:03;;;;;;;2.43;1.20;;;11.60;99.90;;;;;;5054805;28;20398;-71
2023/03/31 04:01:28;;;;;;;3.97;1.10;;;11.50;99.90;;;;;;5054900;28;20166;-71
2023/03/31 04:03:54;;;;;;;3.80;1.23;;;11.60;99.90;;;;;;5054862;28;20237;-72
2023/03/31 04:06:19;;;;;;;1.97;1.27;;;11.50;99.90;;;;;;5054849;28;20163;-72
2023/03/31 04:08:45;;;;;;;1.60;1.20;;;11.40;99.90;;;;;;5054467;28;20194;-71
2023/03/31 04:11:16;;;;;;;3.93;0.93;;;11.50;99.90;;;;;;5053583;28;20258;-72
2023/03/31 04:13:43;;;;;;;5.33;1.23;;;11.50;99.90;;;;;;5054409;28;20301;-72
2023/03/31 04:16:09;;;;;;;0.90;0.60;;;11.40;99.90;;;;;;5053412;28;20404;-71
2023/03/31 04:18:36;;;;;;;1.80;1.13;;;11.50;99.90;;;;;;5052924;28;20812;-72
2023/03/31 04:21:04;;;;;;;1.97;1.10;;;11.40;99.90;;;;;;5054652;28;20490;-70
2023/03/31 04:23:41;;;;;;;3.47;1.20;;;11.40;99.90;;;;;;5054423;28;20429;-70
2023/03/31 04:26:10;;;;;;;1.17;0.90;;;11.40;99.90;;;;;;5054561;28;20401;-71
2023/03/31 04:28:37;;;;;;;2.50;1.10;;;11.50;99.90;;;;;;5052835;28;20456;-71
2023/03/31 04:31:05;;;;;;;3.23;1.53;;;11.50;99.90;;;;;;5054450;28;20406;-71
2023/03/31 04:33:33;;;;;;;3.13;1.90;;;11.40;99.90;;;;;;5053019;28;20432;-72
2023/03/31 04:36:05;;;;;;;3.97;1.10;;;11.50;99.90;;;;;;5053079;28;20413;-72
2023/03/31 04:38:32;;;;;;;1.20;1.00;;;11.40;99.90;;;;;;5054076;28;20410;-71
2023/03/31 04:40:58;;;;;;;3.73;0.97;;;11.40;99.90;;;;;;5054266;28;20496;-71
2023/03/31 04:43:24;;;;;;;1.70;0.80;;;11.30;99.90;;;;;;5054079;28;20913;-71
2023/03/31 04:45:50;;;;;;;2.00;1.10;;;11.30;99.90;;;;;;5054129;28;20484;-71
2023/03/31 04:48:16;;;;;;;2.07;0.90;;;11.30;99.90;;;;;;5053646;28;20441;-72
2023/03/31 04:50:41;;;;;;;1.30;1.00;;;11.30;99.90;;;;;;5054067;28;20295;-72
2023/03/31 04:53:07;;;;;;;6.00;0.83;;;11.30;99.90;;;;;;5051469;28;20502;-71
2023/03/31 04:55:33;;;;;;;5.53;1.03;;;11.30;99.90;;;;;;5053980;28;20205;-72
2023/03/31 04:57:59;;;;;;;5.63;1.50;;;11.30;99.90;;;;;;5053617;28;20193;-72
2023/03/31 05:00:25;;;;;;;2.03;0.90;;;11.30;99.90;;;;;;5052630;28;20181;-73
2023/03/31 05:02:51;;;;;;;2.30;1.00;;;11.30;99.90;;;;;;5053594;28;20449;-71
2023/03/31 05:05:17;;;;;;;1.33;0.90;;;11.30;99.90;;;;;;5053872;28;20432;-72
2023/03/31 05:07:42;;;;;;;1.97;0.80;;;11.30;99.90;;;;;;5053383;28;20456;-70
2023/03/31 05:10:08;;;;;;;2.13;0.70;;;11.30;99.90;;;;;;5053675;28;20167;-70
2023/03/31 05:12:34;;;;;;;2.50;1.17;;;11.30;99.90;;;;;;5053594;28;20167;-71
2023/03/31 05:15:00;;;;;;;1.00;0.63;;;11.30;99.90;;;;;;5053510;28;20585;-71
2023/03/31 05:17:26;;;;;;;1.00;0.80;;;11.30;99.90;;;;;;5053257;28;20493;-71
2023/03/31 05:19:52;;;;;;;10.57;1.30;;;11.20;99.90;;;;;;5053464;28;20178;-71
2023/03/31 05:22:19;;;;;;;1.20;0.90;;;11.20;99.90;;;;;;5053490;28;20266;-72
2023/03/31 05:24:45;;;;;;;6.27;1.13;;;11.30;99.90;;;;;;5053343;28;20195;-71
2023/03/31 05:27:11;;;;;;;2.40;1.13;;;11.30;99.90;;;;;;5053029;28;20487;-72
2023/03/31 05:29:36;;;;;;;3.90;1.33;;;11.30;99.90;;;;;;5053349;28;20409;-71
2023/03/31 05:32:04;;;;;;;2.17;1.27;;;11.40;99.90;;;;;;5052010;28;20600;-71
2023/03/31 05:34:29;;;;;;;2.20;0.70;;;11.50;99.90;;;;;;5053150;28;20183;-72
2023/03/31 05:36:55;;;;;;;1.73;1.00;;;11.60;99.90;;;;;;5052904;28;20413;-73
2023/03/31 05:39:20;;;;;;;2.47;0.90;;;11.60;99.90;;;;;;5052966;28;20186;-71
2023/03/31 05:41:46;;;;;;;2.40;1.00;;;11.70;99.90;;;;;;5053098;28;20250;-72
2023/03/31 05:44:11;;;;;;;1.90;1.00;;;11.60;99.90;;;;;;5052951;28;20183;-71
2023/03/31 05:46:37;;;;;;;1.27;0.90;;;11.60;99.90;;;;;;5052815;28;20277;-73
2023/03/31 05:49:03;;;;;;;4.10;1.20;;;11.60;99.90;;;;;;5052722;28;20254;-71
2023/03/31 05:51:28;;;;;;;1.80;1.10;;;11.60;99.90;;;;;;5052929;28;20293;-71
2023/03/31 05:53:54;;;;;;;1.10;1.00;;;11.60;99.90;;;;;;5052807;28;20183;-72
2023/03/31 05:56:20;;;;;;;2.27;1.07;;;11.60;99.90;;;;;;5052758;28;20167;-71
2023/03/31 05:58:46;;;;;;;2.67;0.90;;;11.60;99.90;;;;;;5052478;28;20186;-71
2023/03/31 06:01:18;;;;;;;4.30;1.53;;;11.70;99.90;;;;;;5052613;28;20401;-71
2023/03/31 06:03:44;;;;;;;1.60;1.00;;;11.60;99.90;;;;;;5052319;28;20237;-71
2023/03/31 06:06:12;;;;;;;1.20;1.00;;;11.60;99.90;;;;;;5052637;28;20416;-71
2023/03/31 06:08:37;;;;;;;0.90;0.60;;;11.60;99.90;;;;;;5052314;28;20949;-71
2023/03/31 06:11:07;;;;;;;1.37;0.80;;;11.70;99.90;;;;;;5052782;28;20406;-72
2023/03/31 06:13:34;;;;;;;3.33;1.10;;;11.60;99.90;;;;;;5052320;28;20205;-71
2023/03/31 06:16:00;;;;;;;2.17;0.70;;;11.60;99.90;;;;;;5052472;28;20463;-71
2023/03/31 06:18:28;;;;;;;1.00;0.70;;;11.60;99.90;;;;;;5052222;28;20413;-71
2023/03/31 06:20:54;;;;;;;2.60;0.93;;;11.70;99.90;;;;;;5052381;28;20163;-71
2023/03/31 06:23:20;;;;;;;3.33;0.80;;;11.70;99.90;;;;;;5052315;28;20430;-71
2023/03/31 06:25:46;;;;;;;2.50;1.17;;;11.80;99.90;;;;;;5052414;28;20412;-72
2023/03/31 06:28:11;;;;;;;1.40;0.80;;;11.80;99.90;;;;;;5051817;28;20441;-71
2023/03/31 06:30:37;;;;;;;1.00;0.77;;;11.80;99.90;;;;;;5052232;28;20639;-71
2023/03/31 06:33:03;;;;;;;2.80;1.27;;;11.70;99.90;;;;;;5050862;28;20232;-71
2023/03/31 06:35:28;;;;;;;1.03;0.90;;;11.70;99.90;;;;;;5052241;28;20566;-71
2023/03/31 06:37:54;;;;;;;2.70;0.90;;;11.60;99.90;;;;;;5051939;28;20405;-71
2023/03/31 06:40:19;;;;;;;2.70;0.80;;;11.60;99.90;;;;;;5050810;28;20544;-71
2023/03/31 06:42:45;;;;;;;0.70;0.50;;;11.60;99.90;;;;;;5051883;28;20206;-72
2023/03/31 06:45:10;;;;;;;0.90;0.80;;;11.60;99.90;;;;;;5050875;28;20174;-71
2023/03/31 06:47:40;;;;;;;1.53;0.80;;;11.60;99.90;;;;;;5051611;28;20214;-71
2023/03/31 06:50:08;;;;;;;1.80;0.80;;;11.60;99.90;;;;;;5052327;28;20739;-71
2023/03/31 06:52:34;;;;;;;0.80;0.60;;;11.70;99.90;;;;;;5051920;28;20400;-73
2023/03/31 06:55:00;;;;;;;1.33;0.80;;;11.70;99.90;;;;;;5051981;28;20401;-72
2023/03/31 06:57:27;;;;;;;1.00;0.80;;;11.80;99.90;;;;;;5050545;28;20524;-72
2023/03/31 06:59:52;;;;;;;1.73;0.67;;;11.90;99.90;;;;;;5051902;28;20405;-71
2023/03/31 07:02:18;;;;;;;1.20;0.70;;;12.10;99.90;;;;;;5051863;28;20413;-72
2023/03/31 07:04:43;;;;;;;1.00;0.90;;;12.60;99.90;;;;;;5051866;28;20191;-70
2023/03/31 07:07:09;;;;;;;1.10;0.73;;;12.90;99.90;;;;;;5051134;28;20187;-70
2023/03/31 07:09:35;;;;;;;1.20;0.70;;;13.00;99.90;;;;;;5051792;28;20182;-70
2023/03/31 07:12:04;;;;;;;1.00;0.70;;;13.10;99.90;;;;;;5051606;28;20448;-71
2023/03/31 07:14:32;;;;;;;1.47;0.70;;;13.10;99.90;;;;;;5051538;28;20255;-71
2023/03/31 07:16:58;;;;;;;3.17;1.53;;;13.10;99.90;;;;;;5054953;28;20416;-71
2023/03/31 07:19:24;;;;;;;0.93;0.63;;;13.40;99.90;;;;;;5055880;28;20410;-71
2023/03/31 07:21:50;;;;;;;0.90;0.63;;;14.00;99.90;;;;;;5054467;28;20171;-70
2023/03/31 07:24:16;;;;;;;1.10;0.63;;;14.50;99.90;;;;;;5055574;28;21161;-70
2023/03/31 07:26:42;;;;;;;1.33;0.70;;;14.70;99.90;;;;;;5055483;28;20189;-71
2023/03/31 07:29:07;;;;;;;1.17;0.90;;;14.80;99.90;;;;;;5055448;28;20413;-70
2023/03/31 07:31:33;;;;;;;1.80;0.97;;;15.00;99.90;;;;;;5055520;28;20167;-70
2023/03/31 07:34:00;;;;;;;1.77;0.80;;;15.80;99.90;;;;;;5055374;28;20186;-70
2023/03/31 07:36:26;;;;;;;1.00;0.60;;;16.80;99.90;;;;;;5055638;28;20170;-70
2023/03/31 07:38:51;;;;;;;1.17;0.80;;;17.50;99.90;;;;;;5055167;28;20496;-70
2023/03/31 07:41:19;;;;;;;2.30;0.80;;;17.80;99.90;;;;;;5053922;28;20183;-71
2023/03/31 07:43:45;;;;;;;0.80;0.60;;;17.90;99.90;;;;;;5054989;28;20187;-70
2023/03/31 07:46:20;;;;;;;1.10;0.80;;;17.60;99.90;;;;;;5055275;28;20401;-71
2023/03/31 07:48:46;;;;;;;1.07;0.60;;;17.20;99.90;;;;;;5054835;28;20543;-71
2023/03/31 07:51:14;;;;;;;1.67;0.93;;;16.80;99.90;;;;;;5055253;28;20393;-70
2023/03/31 07:53:40;;;;;;;1.30;0.90;;;16.70;99.90;;;;;;5053827;28;20787;-68
2023/03/31 07:56:05;;;;;;;3.00;1.20;;;16.70;99.90;;;;;;5054120;28;20405;-68
2023/03/31 07:58:31;;;;;;;1.53;0.90;;;17.00;99.90;;;;;;5054769;28;20171;-69
2023/03/31 08:00:57;;;;;;;2.13;1.07;;;17.00;99.90;;;;;;5055042;28;20166;-68
2023/03/31 08:03:22;;;;;;;1.00;0.80;;;16.50;99.90;;;;;;5053371;28;20187;-69
2023/03/31 08:05:51;;;;;;;1.37;0.90;;;16.20;99.90;;;;;;5054981;28;20174;-69
2023/03/31 08:08:16;;;;;;;2.20;0.90;;;16.00;99.90;;;;;;5054588;28;20190;-70
2023/03/31 08:10:42;;;;;;;2.30;0.97;;;15.80;99.90;;;;;;5055067;28;20402;-69
2023/03/31 08:13:07;;;;;;;2.77;1.70;;;15.70;99.90;;;;;;5054612;28;20248;-69
2023/03/31 08:15:33;;;;;;;1.73;0.90;;;15.50;99.90;;;;;;5054971;28;20507;-69
2023/03/31 08:17:58;;;;;;;1.00;0.73;;;15.30;99.90;;;;;;5054656;28;20171;-69
2023/03/31 08:20:24;;;;;;;1.00;0.80;;;15.40;99.90;;;;;;5054619;28;20177;-69
2023/03/31 08:22:50;;;;;;;3.17;1.23;;;15.30;99.90;;;;;;5054475;28;20210;-70
2023/03/31 08:25:16;;;;;;;1.97;1.13;;;15.40;99.90;;;;;;5054552;28;20193;-69
2023/03/31 08:27:41;;;;;;;1.10;0.77;;;15.40;99.90;;;;;;5053981;28;20221;-70
2023/03/31 08:30:09;;;;;;;7.03;1.33;;;15.30;99.90;;;;;;5054571;28;20159;-69
2023/03/31 08:32:35;;;;;;;1.63;0.93;;;15.50;99.90;;;;;;5054440;28;20167;-69
2023/03/31 08:35:01;;;;;;;1.43;1.00;;;15.70;99.90;;;;;;5054378;28;20408;-70
2023/03/31 08:37:27;;;;;;;2.57;1.03;;;16.00;99.90;;;;;;5054069;28;20178;-70
2023/03/31 08:39:54;;;;;;;2.03;1.20;;;16.00;99.90;;;;;;5054338;28;20572;-69
2023/03/31 08:42:32;;;;;;;6.83;1.23;;;16.40;99.90;;;;;;5054287;28;20410;-69
2023/03/31 08:45:06;;;;;;;5.20;1.20;;;16.80;99.90;;;;;;5053136;28;20758;-71
2023/03/31 08:47:35;;;;;;;3.00;1.27;;;17.20;99.90;;;;;;5052877;28;20477;-70
2023/03/31 08:50:14;;;;;;;2.13;1.57;;;18.40;99.90;;;;;;5054359;28;20940;-70
2023/03/31 08:53:03;;;;;;;11.03;1.63;;;20.30;99.90;;;;;;5053279;28;20401;-72
2023/03/31 08:55:47;;;;;;;2.53;1.10;;;21.30;98.10;;;;;;5053684;28;20417;-71
2023/03/31 08:58:18;;;;;;;6.00;2.40;;;22.20;92.50;;;;;;5053609;28;20409;-71
2023/03/31 09:01:06;;;;;;;4.37;1.70;;;23.50;81.00;;;;;;5054334;28;20441;-70
2023/03/31 09:04:03;;;;;;;2.67;1.20;;;24.80;73.40;;;;;;5054338;28;20427;-72
2023/03/31 09:07:07;;;;;;;3.53;1.83;;;26.00;63.80;;;;;;5053839;28;20404;-71
2023/03/31 09:09:37;;;;;;;10.33;1.83;;;25.50;58.00;;;;;;5053542;28;20436;-71
2023/03/31 09:12:10;;;;;;;3.67;1.63;;;24.50;57.60;;;;;;5054326;28;20406;-72
2023/03/31 09:14:41;;;;;;;2.80;1.53;;;23.30;58.30;;;;;;5053334;28;20437;-71
2023/03/31 09:17:18;;;;;;;3.77;1.50;;;22.80;60.70;;;;;;5052006;28;20417;-72
2023/03/31 09:20:06;;;;;;;5.90;1.70;;;22.20;61.90;;;;;;5052744;28;20405;-72
2023/03/31 09:22:38;;;;;;;2.53;1.60;;;20.90;61.50;;;;;;5054272;28;20402;-72
2023/03/31 09:25:20;;;;;;;4.33;1.43;;;19.80;63.90;;;;;;5053874;28;20397;-72
2023/03/31 09:27:46;;;;;;;3.93;1.73;;;19.30;69.30;;;;;;5053815;28;20480;-71
2023/03/31 09:30:15;;;;;;;2.57;1.13;;;19.20;74.30;;;;;;5053988;28;20432;-71
2023/03/31 09:32:41;;;;;;;3.23;1.33;;;19.10;78.30;;;;;;5053490;28;20397;-71
2023/03/31 09:35:22;;;;;;;9.40;1.30;;;18.70;79.60;;;;;;5053816;28;20885;-72
2023/03/31 09:37:49;;;;;;;1.80;1.27;;;18.80;81.80;;;;;;5053237;28;20459;-71
2023/03/31 09:40:21;;;;;;;3.83;1.33;;;18.60;82.20;;;;;;5053027;28;20817;-70
2023/03/31 09:42:53;;;;;;;3.93;1.20;;;19.10;84.30;;;;;;5053088;28;20441;-71
2023/03/31 09:45:19;;;;;;;5.13;1.47;;;19.70;81.60;;;;;;5054758;28;20405;-71
2023/03/31 09:47:51;;;;;;;3.50;1.40;;;20.60;75.80;;;;;;5052704;28;20449;-71
2023/03/31 09:50:17;;;;;;;2.07;1.47;;;21.30;73.10;;;;;;5053313;28;20758;-72
2023/03/31 09:52:50;;;;;;;4.33;1.60;;;21.40;67.60;;;;;;5054077;28;20397;-72
2023/03/31 09:55:23;;;;;;;4.70;1.40;;;21.10;69.20;;;;;;5052624;28;20417;-71
2023/03/31 09:57:49;;;;;;;7.50;2.00;;;21.20;68.70;;;;;;5051182;28;20932;-71
2023/03/31 10:00:18;;;;;;;2.00;1.10;;;21.00;66.90;;;;;;5052801;28;20401;-71
2023/03/31 10:02:50;;;;;;;2.80;1.50;;;20.80;66.50;;;;;;5052606;28;20243;-70
2023/03/31 10:05:48;;;;;;;3.73;1.53;;;20.70;68.70;;;;;;5053795;28;20497;-71
2023/03/31 10:08:21;;;;;;;3.57;1.70;;;20.50;69.30;;;;;;5049619;28;20991;-71
2023/03/31 10:11:13;;;;;;;6.40;1.80;;;20.00;69.70;;;;;;5052313;28;20401;-70
2023/03/31 10:13:51;;;;;;;1.53;1.40;;;19.40;73.30;;;;;;5050950;28;20453;-70
2023/03/31 10:16:30;;;;;;;4.43;1.63;;;19.30;74.90;;;;;;5053504;28;20931;-71
2023/03/31 10:19:12;;;;;;;4.60;1.70;;;19.50;77.50;;;;;;5052778;28;20412;-70
2023/03/31 10:21:38;;;;;;;10.73;1.90;;;20.30;78.60;;;;;;5052604;28;20405;-70
2023/03/31 10:24:08;;;;;;;2.77;1.33;;;21.00;72.40;;;;;;5053762;28;20791;-71
2023/03/31 10:26:34;;;;;;;5.43;1.07;;;21.30;67.60;;;;;;5054427;28;20163;-72
2023/03/31 10:29:00;;;;;;;3.50;1.40;;;21.50;66.60;;;;;;5054185;28;20456;-71
2023/03/31 10:31:34;;;;;;;6.17;1.63;;;20.80;64.70;;;;;;5052861;28;20182;-72
2023/03/31 10:34:08;;;;;;;3.67;1.50;;;20.30;67.00;;;;;;5053530;28;20183;-72
2023/03/31 10:36:34;;;;;;;2.33;1.10;;;20.20;70.60;;;;;;5054412;28;20400;-71
2023/03/31 10:39:05;;;;;;;3.50;1.40;;;20.00;69.10;;;;;;5051854;28;20397;-70
2023/03/31 10:41:32;;;;;;;2.77;1.70;;;19.10;70.10;;;;;;5052793;28;20794;-71
2023/03/31 10:44:00;;;;;;;2.63;1.80;;;18.50;73.40;;;;;;5052037;28;20437;-72
2023/03/31 10:46:47;;;;;;;4.10;2.00;;;18.10;78.00;;;;;;5052726;28;20412;-71
2023/03/31 10:49:25;;;;;;;4.07;1.57;;;18.10;82.20;;;;;;5053677;28;20408;-72
2023/03/31 10:51:56;;;;;;;3.90;1.40;;;18.30;79.10;;;;;;5052411;28;20397;-71
2023/03/31 10:54:22;;;;;;;7.33;1.50;;;18.30;80.00;;;;;;5051795;28;20416;-71
2023/03/31 10:56:54;;;;;;;5.10;2.10;;;18.30;80.40;;;;;;5053082;28;20390;-72
2023/03/31 10:59:45;;;;;;;1.80;1.10;;;17.80;79.90;;;;;;5053059;28;20401;-72
2023/03/31 11:02:35;;;;;;;2.30;1.40;;;17.80;83.90;;;;;;5053490;28;20443;-72
2023/03/31 11:05:28;;;;;;;5.00;1.60;;;17.30;87.70;;;;;;5053181;28;20393;-71
2023/03/31 11:08:18;;;;;;;2.53;1.30;;;17.20;92.40;;;;;;5052949;28;20540;-72
2023/03/31 11:11:06;;;;;;;2.80;1.10;;;16.80;99.90;;;;;;5052588;28;20393;-71
2023/03/31 11:13:47;;;;;;;4.40;1.03;;;16.40;99.90;;;;;;5051395;28;20813;-72
2023/03/31 11:16:31;;;;;;;3.77;1.10;;;16.20;99.90;;;;;;5051518;28;20424;-71
2023/03/31 11:19:03;;;;;;;3.40;1.13;;;16.20;99.90;;;;;;5052168;28;20862;-72
2023/03/31 11:21:57;;;;;;;1.93;0.90;;;16.30;99.90;;;;;;5052086;28;20451;-71
2023/03/31 11:24:31;;;;;;;5.77;1.20;;;16.50;99.90;;;;;;5051325;28;20536;-71
2023/03/31 11:27:26;;;;;;;3.70;1.17;;;16.70;99.90;;;;;;5052075;28;20412;-72
2023/03/31 11:30:07;;;;;;;2.07;0.90;;;16.80;99.90;;;;;;5050585;28;20416;-71
2023/03/31 11:32:54;;;;;;;1.63;0.90;;;16.80;99.90;;;;;;5053585;28;20763;-70
2023/03/31 11:35:29;;;;;;;1.90;1.10;;;17.10;99.90;;;;;;5052948;28;20425;-73
2023/03/31 11:38:26;;;;;;;1.90;1.10;;;17.50;99.90;;;;;;5052675;28;20512;-72
2023/03/31 11:41:00;;;;;;;3.00;1.10;;;17.80;99.90;;;;;;5053362;28;20500;-72
2023/03/31 11:43:47;;;;;;;3.57;1.50;;;17.80;99.90;;;;;;5051958;28;20433;-72
2023/03/31 11:46:12;;;;;;;4.10;1.53;;;18.10;99.90;;;;;;5051949;28;20432;-73
2023/03/31 11:48:58;;;;;;;2.97;1.37;;;18.40;99.90;;;;;;5054075;28;20449;-72
2023/03/31 11:51:32;;;;;;;8.00;2.00;;;18.40;99.90;;;;;;5054504;28;20186;-72
2023/03/31 11:54:01;;;;;;;3.33;1.67;;;18.30;99.90;;;;;;5053529;28;20474;-72
2023/03/31 11:56:35;;;;;;;2.87;1.67;;;18.40;99.90;;;;;;5053608;28;20412;-72
2023/03/31 11:59:03;;;;;;;4.93;1.97;;;18.30;99.90;;;;;;5051159;28;20966;-71
2023/03/31 12:01:54;;;;;;;7.57;2.30;;;17.90;99.90;;;;;;5052402;28;20463;-72
2023/03/31 12:04:56;;;;;;;4.40;1.80;;;17.50;99.90;;;;;;5055029;28;20420;-71
2023/03/31 12:07:40;;;;;;;5.30;1.70;;;17.40;99.90;;;;;;5034861;28;20495;-71
2023/03/31 12:10:22;;;;;;;4.10;1.70;;;17.30;99.90;;;;;;5050832;28;20417;-71
2023/03/31 12:13:01;;;;;;;2.90;2.27;;;17.40;99.90;;;;;;5058267;28;21095;-72
2023/03/31 12:15:32;;;;;;;3.40;1.67;;;17.40;99.90;;;;;;5056812;28;20883;-71
2023/03/31 12:18:16;;;;;;;3.00;1.20;;;17.20;99.90;;;;;;5054515;28;20418;-71
2023/03/31 12:20:52;;;;;;;3.10;1.43;;;17.20;99.90;;;;;;5055242;28;20411;-72
2023/03/31 12:23:22;;;;;;;1.80;1.50;;;17.40;99.90;;;;;;5055777;28;20457;-71
2023/03/31 12:25:55;;;;;;;1.80;1.10;;;17.50;99.60;;;;;;5055412;28;20410;-71
2023/03/31 12:28:21;;;;;;;4.87;1.60;;;17.30;99.90;;;;;;5054896;28;20455;-71
2023/03/31 12:30:48;;;;;;;1.13;0.90;;;17.30;99.90;;;;;;5054844;28;20409;-71
2023/03/31 12:33:52;;;;;;;4.33;1.73;;;17.30;99.90;;;;;;5054630;28;20432;-71
2023/03/31 12:36:56;;;;;;;2.90;1.43;;;17.00;99.90;;;;;;5044622;28;21141;-73
2023/03/31 12:40:01;;;;;;;2.27;1.37;;;17.10;99.90;;;;;;5056062;28;20851;-71
2023/03/31 12:43:06;;;;;;;6.20;2.00;;;17.00;99.90;;;;;;5054063;28;20536;-72
2023/03/31 12:45:53;;;;;;;2.70;1.30;;;17.00;99.90;;;;;;5055422;28;20401;-72
2023/03/31 12:48:48;;;;;;;2.77;1.50;;;17.10;99.90;;;;;;5054870;28;20821;-72
2023/03/31 12:51:27;;;;;;;1.73;1.10;;;17.30;99.70;;;;;;5055326;28;20401;-71
2023/03/31 12:54:14;;;;;;;3.03;1.13;;;17.00;98.60;;;;;;5054099;28;20429;-71
2023/03/31 12:56:58;;;;;;;2.43;1.07;;;17.00;99.90;;;;;;5053996;28;20985;-71
2023/03/31 12:59:44;;;;;;;2.13;1.57;;;17.30;99.90;;;;;;5052664;28;20420;-71
2023/03/31 13:02:23;;;;;;;2.90;1.40;;;17.30;99.90;;;;;;5054767;28;20413;-72
2023/03/31 13:04:49;;;;;;;8.13;1.60;;;17.20;99.90;;;;;;5055150;28;20427;-72
2023/03/31 13:07:24;;;;;;;3.00;1.43;;;17.10;99.90;;;;;;5054608;28;20494;-72
2023/03/31 13:09:54;;;;;;;3.30;1.10;;;17.10;99.90;;;;;;5055157;28;20404;-72
2023/03/31 13:12:24;;;;;;;2.97;1.17;;;17.10;99.90;;;;;;5054681;28;20433;-72
2023/03/31 13:14:53;;;;;;;2.43;1.07;;;17.00;99.90;;;;;;5056690;28;20476;-72